Flight Track Log - Related Links

Times and Time Zones

All times are in EDT time to prevent confusion due to time zone crossing. See the VNR160 flight status page for this flight to view local times or setup timezone preferences in your user account.

Time Position Orientation Groundspeed Altitude Reporting Facility
EDT Latitude Longitude Course Direction KTS MPH feet Rate Location/Type
Wed 05:43:20 PM 26.7539 -80.0369 322° Northwest 118 136 5,700  Level Miami Center
Wed 05:44:20 PM 26.7656 -80.0814 286° West 132 152 7,900 2,050 Climbing Miami Center
Wed 05:45:20 PM 26.7808 -80.1378 287° West 172 198 9,800 1,900 Climbing Miami Center
Wed 05:46:20 PM 26.7983 -80.1986 288° West 192 221 11,700 1,700 Climbing Miami Center
Wed 05:47:00 PM 27.0491 -80.3783 322° Northwest  Level FlightAware Approximate
Wed 05:47:20 PM 26.8156 -80.2644 286° West 210 242 13,200  Level Miami Center
Wed 05:48:00 PM 27.1107 -80.4323 322° Northwest  Level FlightAware Approximate
Wed 05:48:20 PM 26.8328 -80.3347 285° West 235 270 15,100  Level Miami Center
Wed 05:49:20 PM 26.8500 -80.4003 286° West 240 276 16,700 1,500 Climbing Miami Center
Wed 05:50:20 PM 26.8689 -80.4756 286° West 240 276 18,100 1,550 Climbing Miami Center
Wed 05:51:20 PM 26.8881 -80.5483 286° West 245 282 19,800 1,650 Climbing Miami Center
Wed 05:52:20 PM 26.9089 -80.6233 287° West 245 282 21,400 1,550 Climbing Miami Center
Wed 05:53:20 PM 26.9281 -80.6986 286° West 245 282 22,900 1,450 Climbing Miami Center
Wed 05:54:20 PM 26.9467 -80.7761 285° West 245 282 24,300 1,300 Climbing Miami Center
Wed 05:55:20 PM 26.9675 -80.8558 286° West 255 293 25,500 1,150 Climbing Miami Center
Wed 05:56:20 PM 26.9903 -80.9361 288° West 263 303 26,600 750 Climbing Miami Center
Wed 05:57:20 PM 27.0131 -81.0206 287° West 274 315 27,000 200 Climbing Miami Center
Wed 05:58:20 PM 27.0392 -81.1242 286° West 294 338 27,000  Level Miami Center
Wed 05:59:20 PM 27.0656 -81.2208 287° West 315 362 27,000  Level Miami Center
Wed 06:00:20 PM 27.0917 -81.3244 286° West 330 380 27,000  Level Miami Center
Wed 06:01:20 PM 27.1178 -81.4256 286° West 347 399 27,000  Level Miami Center
Wed 06:02:20 PM 27.1436 -81.5269 286° West 347 399 27,000 500 Level Miami Center
Wed 06:03:20 PM 27.1697 -81.6261 287° West 341 392 28,000 1,000 Climbing Miami Center
Wed 06:04:20 PM 27.1897 -81.7133 284° West 328 377 29,000 1,000 Climbing Miami Center
Wed 06:05:20 PM 27.2139 -81.8006 287° West 309 356 30,000 500 Climbing Miami Center
Wed 06:06:20 PM 27.2397 -81.8997 286° West 304 350 30,000  Level Miami Center
Wed 06:07:20 PM 27.2653 -82.0014 286° West 319 367 30,000  Level Miami Center
Wed 06:08:20 PM 27.2872 -82.0911 285° West 335 386 30,000  Level Miami Center
Wed 06:09:20 PM 27.3128 -82.1928 286° West 341 392 30,000 600 Level Miami Center
Wed 06:10:20 PM 27.3400 -82.3014 286° West 341 392 31,200 1,000 Climbing Miami Center
Wed 06:11:20 PM 27.3617 -82.3914 285° West 317 365 32,000 400 Climbing Miami Center
Wed 06:12:20 PM 27.3872 -82.4836 287° West 312 359 32,000  Level Miami Center
Wed 06:13:20 PM 27.4067 -82.5711 284° West 317 365 32,000 350 Level Miami Center
Wed 06:14:20 PM 27.4258 -82.6703 282° West 323 372 32,700 950 Climbing Miami Center
Wed 06:15:20 PM 27.4447 -82.7717 282° West 312 359 33,900 1,150 Climbing Miami Center
Wed 06:16:20 PM 27.4578 -82.8589 280° West 298 343 35,000 1,050 Climbing Miami Center
Wed 06:17:20 PM 27.4772 -82.9394 285° West 281 323 36,000 500 Climbing Miami Center
Wed 06:18:20 PM 27.4925 -83.0222 282° West 276 318 36,000  Level Miami Center
Wed 06:19:20 PM 27.5075 -83.1119 281° West 281 323 36,000  Level Miami Center
Wed 06:20:20 PM 27.5222 -83.2039 280° West 292 336 36,000  Level Miami Center
Wed 06:21:20 PM 27.5408 -83.2986 283° West 302 348 36,000  Level Miami Center
Wed 06:22:20 PM 27.5575 -83.3931 281° West 302 348 36,000  Level Miami Center
Wed 06:23:20 PM 27.5739 -83.4900 281° West 313 360 36,000  Level Miami Center
Wed 06:24:20 PM 27.5947 -83.5847 284° West 313 360 36,000  Level Miami Center
Wed 06:25:20 PM 27.6089 -83.6817 279° West 313 360 36,000  Level Miami Center
Wed 06:26:20 PM 27.6294 -83.7764 284° West 313 360 36,000  Level Miami Center
Wed 06:27:20 PM 27.6456 -83.8733 281° West 318 366 36,000  Level Miami Center
Wed 06:28:20 PM 27.6597 -83.9681 280° West 318 366 36,000  Level Miami Center
Wed 06:29:20 PM 27.6778 -84.0653 282° West 318 366 36,000  Level Miami Center
Wed 06:30:20 PM 27.6939 -84.1597 281° West 318 366 36,000  Level Miami Center
Wed 06:31:20 PM 27.7056 -84.2567 278° West 318 366 36,000  Level Miami Center
Wed 06:32:20 PM 27.7275 -84.3542 284° West 318 366 36,000  Level Miami Center
Wed 06:33:20 PM 27.7411 -84.4511 279° West 318 366 36,000  Level Miami Center
Wed 06:34:20 PM 27.7633 -84.5464 285° West 318 366 36,000  Level Miami Center
Wed 06:34:55 PM 27.7714 -84.6022 279° West 331 381 36,000  Level Jacksonville Center
Wed 06:35:55 PM 27.7911 -84.6894 284° West 317 365 36,000  Level Jacksonville Center
Wed 06:36:55 PM 27.8044 -84.7786 280° West 317 365 36,000  Level Jacksonville Center
Wed 06:37:55 PM 27.8217 -84.8775 281° West 319 367 36,000  Level Jacksonville Center
Wed 06:38:55 PM 27.8367 -84.9789 280° West 319 367 36,000  Level Jacksonville Center
Wed 06:39:55 PM 27.8539 -85.0753 281° West 319 367 36,000  Level Jacksonville Center
Wed 06:40:55 PM 27.8689 -85.1742 280° West 320 368 36,000  Level Jacksonville Center
Wed 06:41:55 PM 27.8881 -85.2661 283° West 314 361 36,000  Level Jacksonville Center
Wed 06:42:55 PM 27.9175 -85.3678 288° West 321 369 36,000  Level Jacksonville Center
Wed 06:43:55 PM 27.9450 -85.4603 289° West 321 369 36,000  Level Jacksonville Center
Wed 06:44:55 PM 27.9742 -85.5572 289° West 326 375 36,000  Level Jacksonville Center
Wed 06:45:55 PM 28.0036 -85.6544 289° West 326 375 36,000  Level Jacksonville Center
Wed 06:46:55 PM 28.0306 -85.7492 288° West 326 375 36,000  Level Jacksonville Center
Wed 06:47:55 PM 28.0619 -85.8442 291° West 324 373 36,000  Level Jacksonville Center
Wed 06:48:55 PM 28.0908 -85.9436 288° West 324 373 36,000  Level Jacksonville Center
Wed 06:49:55 PM 28.1217 -86.0436 289° West 330 380 36,000  Level Jacksonville Center
Wed 06:50:55 PM 28.1486 -86.1383 288° West 330 380 36,000  Level Jacksonville Center
Wed 06:51:55 PM 28.1756 -86.2311 288° West 322 371 36,000  Level Jacksonville Center
Wed 06:52:55 PM 28.2061 -86.3333 289° West 327 376 36,000  Level Jacksonville Center
Wed 06:53:55 PM 28.2350 -86.4264 289° West 322 371 36,000  Level Jacksonville Center
Wed 06:54:55 PM 28.2594 -86.5167 287° West 322 371 36,000  Level Jacksonville Center
Wed 06:55:55 PM 28.2942 -86.6217 291° West 322 371 36,000  Level Jacksonville Center
Wed 06:56:55 PM 28.3186 -86.7122 287° West 322 371 36,000  Level Jacksonville Center
Wed 06:57:55 PM 28.3450 -86.8075 287° West 322 371 36,000 250 Level Jacksonville Center
Wed 06:58:55 PM 28.3694 -86.8956 288° West 316 364 36,500 550 Climbing Jacksonville Center
Wed 06:59:55 PM 28.3936 -86.9861 287° West 316 364 37,100 500 Climbing Jacksonville Center
Wed 07:00:55 PM 28.4139 -87.0697 285° West 296 341 37,500 400 Climbing Jacksonville Center
Wed 07:01:55 PM 28.4342 -87.1531 285° West 281 323 37,900 250 Climbing Jacksonville Center
Wed 07:02:55 PM 28.4622 -87.2439 289° West 286 329 38,000 35 Climbing Jacksonville Center
Wed 07:04:45 PM 28.5044 -87.4056 287° West 290 334 38,000  Level Houston Center
Wed 07:05:47 PM 28.5250 -87.4922 285° West 290 334 38,000  Level Houston Center
Wed 07:06:49 PM 28.5517 -87.5875 288° West 298 343 38,000  Level Houston Center
Wed 07:07:51 PM 28.5800 -87.6961 287° West 302 348 38,000  Level Houston Center
Wed 07:08:53 PM 28.6033 -87.7850 287° West 301 346 38,000  Level Houston Center
Wed 07:09:56 PM 28.6286 -87.8769 287° West 301 346 38,000  Level Houston Center
Wed 07:10:58 PM 28.6525 -87.9661 287° West 299 344 38,000  Level Houston Center
Wed 07:12:00 PM 28.6794 -88.0583 288° West 299 344 38,000  Level Houston Center
Wed 07:13:02 PM 28.6911 -88.1406 279° West 291 335 38,000  Level Houston Center
Wed 07:14:04 PM 28.7169 -88.2489 285° West 293 337 38,000  Level Houston Center
Wed 07:15:06 PM 28.7392 -88.3364 286° West 292 336 38,000  Level Houston Center
Wed 07:16:08 PM 28.7614 -88.4217 287° West 288 331 38,000  Level Houston Center
Wed 07:17:10 PM 28.7828 -88.5092 286° West 286 329 38,000  Level Houston Center
Wed 07:18:12 PM 28.8050 -88.5936 287° West 284 327 38,000  Level Houston Center
Wed 07:19:14 PM 28.8264 -88.6786 286° West 281 323 38,000  Level Houston Center
Wed 07:20:16 PM 28.8517 -88.7794 286° West 278 320 38,000  Level Houston Center
Wed 07:21:19 PM 28.8728 -88.8639 286° West 277 319 38,000  Level Houston Center
Wed 07:22:21 PM 28.8939 -88.9461 286° West 275 316 38,000  Level Houston Center
Wed 07:23:23 PM 28.9108 -89.0308 283° West 273 314 38,000  Level Houston Center
Wed 07:24:25 PM 28.9219 -89.1172 278° West 273 314 38,000  Level Houston Center
Wed 07:25:27 PM 28.9358 -89.2044 280° West 277 319 38,000  Level Houston Center
Wed 07:26:29 PM 28.9514 -89.3072 280° West 277 319 38,000  Level Houston Center
Wed 07:27:31 PM 28.9639 -89.3950 279° West 278 320 38,000  Level Houston Center
Wed 07:28:33 PM 28.9758 -89.4819 279° West 278 320 38,000  Level Houston Center
Wed 07:29:35 PM 28.9903 -89.5631 282° West 271 312 38,000  Level Houston Center
Wed 07:30:38 PM 29.0022 -89.6503 279° West 273 314 38,000  Level Houston Center
Wed 07:31:40 PM 29.0136 -89.7375 279° West 276 318 38,000  Level Houston Center
Wed 07:32:42 PM 29.0281 -89.8411 279° West 277 319 38,000  Level Houston Center
Wed 07:33:44 PM 29.0414 -89.9256 280° West 274 315 38,000  Level Houston Center
Wed 07:34:46 PM 29.0533 -90.0106 279° West 273 314 38,000  Level Houston Center
Wed 07:35:48 PM 29.0650 -90.0956 279° West 272 313 38,000  Level Houston Center
Wed 07:36:50 PM 29.0769 -90.1806 279° West 271 312 38,000  Level Houston Center
Wed 07:37:52 PM 29.0894 -90.2658 280° West 272 313 38,000  Level Houston Center
Wed 07:38:54 PM 29.1039 -90.3675 279° West 271 312 38,000  Level Houston Center
Wed 07:39:56 PM 29.1158 -90.4519 279° West 270 311 38,000  Level Houston Center
Wed 07:40:59 PM 29.1278 -90.5367 279° West 270 311 38,000  Level Houston Center
Wed 07:42:01 PM 29.1369 -90.6178 277° West 265 305 38,000  Level Houston Center
Wed 07:43:03 PM 29.1486 -90.7019 279° West 267 307 38,000  Level Houston Center
Wed 07:44:05 PM 29.1597 -90.7864 279° West 268 308 38,000  Level Houston Center
Wed 07:45:07 PM 29.1733 -90.8878 279° West 269 310 38,000  Level Houston Center
Wed 07:46:09 PM 29.1844 -90.9725 279° West 268 308 38,000  Level Houston Center
Wed 07:47:11 PM 29.1956 -91.0569 279° West 269 310 38,000  Level Houston Center
Wed 07:48:13 PM 29.2069 -91.1400 279° West 266 306 38,000  Level Houston Center
Wed 07:49:15 PM 29.2183 -91.2247 279° West 268 308 38,000  Level Houston Center
Wed 07:50:17 PM 29.2297 -91.3089 279° West 268 308 38,000  Level Houston Center
Wed 07:51:19 PM 29.2431 -91.4081 279° West 265 305 38,000  Level Houston Center
Wed 07:52:22 PM 29.2533 -91.4925 278° West 267 307 38,000  Level Houston Center
Wed 07:53:24 PM 29.2642 -91.5753 279° West 265 305 38,000  Level Houston Center
Wed 07:54:26 PM 29.2753 -91.6589 279° West 265 305 38,000  Level Houston Center
Wed 07:55:28 PM 29.2861 -91.7411 279° West 264 304 38,000  Level Houston Center
Wed 07:56:30 PM 29.2978 -91.8406 278° West 262 302 38,000  Level Houston Center
Wed 07:57:32 PM 29.3089 -91.9225 279° West 262 302 38,000  Level Houston Center
Wed 07:58:34 PM 29.3186 -92.0053 278° West 263 303 38,000  Level Houston Center
Wed 07:59:36 PM 29.3289 -92.0839 279° West 262 302 38,000  Level Houston Center
Wed 08:00:38 PM 29.3392 -92.1664 278° West 261 300 38,000  Level Houston Center
Wed 08:01:40 PM 29.3522 -92.2647 279° West 261 300 38,000  Level Houston Center
Wed 08:02:42 PM 29.3619 -92.3481 278° West 263 303 38,000  Level Houston Center
Wed 08:03:45 PM 29.3725 -92.4303 278° West 262 302 38,000  Level Houston Center
Wed 08:04:47 PM 29.3831 -92.5131 278° West 263 303 38,000  Level Houston Center
Wed 08:05:49 PM 29.3919 -92.5936 277° West 257 296 38,000  Level Houston Center
Wed 08:06:51 PM 29.4036 -92.6875 278° West 260 299 38,000  Level Houston Center
Wed 08:07:53 PM 29.4136 -92.7739 278° West 258 297 38,000 -194 Level Houston Center
Wed 08:08:55 PM 29.4247 -92.8561 279° West 259 298 37,600 -581 Descending Houston Center
Wed 08:09:57 PM 29.4347 -92.9431 278° West 270 311 36,800 -774 Descending Houston Center
Wed 08:10:59 PM 29.4450 -93.0314 278° West 277 319 36,000 -726 Descending Houston Center
Wed 08:12:01 PM 29.4553 -93.1186 278° West 277 319 35,300 -677 Descending Houston Center
Wed 08:13:03 PM 29.4667 -93.2072 278° West 279 321 34,600 -726 Descending Houston Center
Wed 08:14:05 PM 29.4772 -93.3083 277° West 282 325 33,800 -726 Descending Houston Center
Wed 08:15:07 PM 29.4894 -93.3994 279° West 288 331 33,100 -677 Descending Houston Center
Wed 08:16:09 PM 29.4997 -93.4933 277° West 294 338 32,400 -532 Descending Houston Center
Wed 08:17:11 PM 29.5097 -93.5858 277° West 293 337 32,000 -194 Descending Houston Center
Wed 08:18:13 PM 29.5228 -93.6961 278° West 293 337 32,000  Level Houston Center
Wed 08:19:15 PM 29.5322 -93.7900 277° West 294 338 32,000  Level Houston Center
Wed 08:20:17 PM 29.5428 -93.8822 278° West 294 338 32,000  Level Houston Center
Wed 08:21:19 PM 29.5528 -93.9744 277° West 293 337 32,000  Level Houston Center
Wed 08:22:21 PM 29.5642 -94.0686 278° West 294 338 32,000  Level Houston Center
Wed 08:23:23 PM 29.5753 -94.1617 278° West 295 339 32,000  Level Houston Center
Wed 08:24:25 PM 29.5875 -94.2719 277° West 293 337 32,000  Level Houston Center
Wed 08:25:27 PM 29.5972 -94.3647 277° West 293 337 32,000  Level Houston Center
Wed 08:26:29 PM 29.6069 -94.4564 277° West 292 336 32,000  Level Houston Center
Wed 08:27:32 PM 29.6158 -94.5497 276° West 294 338 32,000  Level Houston Center
Wed 08:28:34 PM 29.6261 -94.6417 277° West 291 335 32,000  Level Houston Center
Wed 08:29:36 PM 29.6358 -94.7339 277° West 291 335 32,000  Level Houston Center
Wed 08:30:38 PM 29.6472 -94.8447 277° West 292 336 32,000  Level Houston Center
Wed 08:31:40 PM 29.6572 -94.9358 277° West 291 335 32,000  Level Houston Center
Wed 08:32:42 PM 29.6672 -95.0264 277° West 288 331 32,000  Level Houston Center
Wed 08:33:44 PM 29.6744 -95.1164 275° West 296 341 32,000  Level Houston Center
Wed 08:34:46 PM 29.6844 -95.2261 276° West 291 335 32,000  Level Houston Center
Wed 08:35:48 PM 29.6969 -95.3222 279° West 303 349 32,000  Level Houston Center
Wed 08:36:50 PM 29.7053 -95.4147 276° West 297 342 32,000  Level Houston Center
Wed 08:37:52 PM 29.7139 -95.5061 276° West 292 336 32,000  Level Houston Center
Wed 08:38:54 PM 29.7239 -95.5997 277° West 294 338 32,000  Level Houston Center
Wed 08:39:56 PM 29.7339 -95.7108 276° West 293 337 32,000  Level Houston Center
Wed 08:40:58 PM 29.7417 -95.8025 276° West 289 333 32,000  Level Houston Center
Wed 08:42:00 PM 29.7506 -95.8967 276° West 294 338 32,000  Level Houston Center
Wed 08:43:02 PM 29.7600 -95.9894 277° West 295 339 32,000  Level Houston Center
Wed 08:44:04 PM 29.7692 -96.0822 277° West 290 334 32,000  Level Houston Center
Wed 08:45:06 PM 29.7781 -96.1761 276° West 294 338 32,000  Level Houston Center
Wed 08:46:08 PM 29.7861 -96.2875 275° West 294 338 32,000 -48 Level Houston Center
Wed 08:47:10 PM 29.7936 -96.3800 275° West 292 336 31,900 -774 Descending Houston Center
Wed 08:48:12 PM 29.8011 -96.4703 275° West 287 330 30,400 -1,548 Descending Houston Center
Wed 08:49:14 PM 29.8083 -96.5631 275° West 290 334 28,700 -1,645 Descending Houston Center
Wed 08:50:16 PM 29.8147 -96.6533 275° West 288 331 27,000 -1,790 Descending Houston Center
Wed 08:51:18 PM 29.8225 -96.7558 275° West 276 318 25,000 -1,790 Descending Houston Center
Wed 08:52:20 PM 29.8283 -96.8422 274° West 271 312 23,300 -1,645 Descending Houston Center
Wed 08:53:22 PM 29.8350 -96.9292 275° West 273 314 21,600 -1,645 Descending Houston Center
Wed 08:54:24 PM 29.8414 -97.0342 274° West 323 372 19,900 -1,645 Descending Houston Center
Wed 08:55:26 PM 29.8492 -97.1297 275° West 308 354 18,200 -1,887 Descending Houston Center
Wed 08:56:28 PM 29.8578 -97.2408 275° West 292 336 16,000 -1,887 Descending Houston Center
Wed 08:57:30 PM 29.8631 -97.3311 274° West 285 328 14,300 -1,355 Descending Houston Center
Wed 08:58:32 PM 29.8683 -97.4197 274° West 279 321 13,200 -1,016 Descending Houston Center
Wed 08:59:34 PM 29.8739 -97.5031 274° West 265 305 12,200 -1,016 Descending Houston Center
Wed 09:00:36 PM 29.8800 -97.6053 274° West 275 316 11,100 -1,043 Descending Houston Center
Wed 09:01:29 PM 29.8850 -97.6778 275° West 274 315 10,200 -1,000 Descending Houston Center
Wed 09:02:24 PM 29.8886 -97.7569 273° West 272 313 9,300 -1,014 Descending Houston Center
Wed 09:02:40 PM 29.8900 -97.7781 274° West 272 313 9,000 -1,082 Descending Houston Center
Wed 09:03:25 PM 29.8950 -97.8453 275° West 273 314 8,200 -968 Descending Houston Center
Wed 09:03:42 PM 29.8914 -97.8719 261° West 272 313 8,000 -448 Descending Houston Center
Wed 09:04:32 PM 29.8658 -97.9333 244° Southwest 253 291 7,700 -982 Descending Houston Center
Wed 09:05:32 PM 29.8367 -98.0044 245° Southwest 250 288 6,200 -843 Descending Houston Center
Wed 09:06:33 PM 29.8108 -98.0631 243° Southwest 199 229 6,000 -98 Descending Houston Center
Wed 09:07:34 PM 29.7833 -98.1267 244° Southwest 223 257 6,000  Level Houston Center
Wed 09:07:49 PM 29.7797 -98.1369 248° West 225 259 6,000  Level Houston Center
Wed 09:08:29 PM 29.7594 -98.1875 245° Southwest 231 266 6,000  Level Houston Center
Wed 09:08:51 PM 29.7483 -98.2136 244° Southwest 228 262 6,000  Level Houston Center
Wed 09:09:41 PM 29.7253 -98.2686 244° Southwest 230 265 6,000  Level Houston Center
Wed 09:10:42 PM 29.6978 -98.3347 244° Southwest 229 264 6,000  Level Houston Center
Wed 09:11:37 PM 29.6717 -98.3956 244° Southwest 230 265 6,000 -405 Level Houston Center
Wed 09:11:56 PM 29.6700 -98.4167 265° West 221 254 5,500 -1,778 Descending Houston Center
Wed 09:12:31 PM 29.6731 -98.4556 275° West 192 221 4,400 -1,645 Descending Houston Center
Wed 09:12:58 PM 29.6733 -98.4778 271° West 196 226 3,800 -1,254 Descending Houston Center
Wed 09:13:38 PM 29.6814 -98.5242 281° West 201 231 3,000 -774 Descending Houston Center
Wed 09:14:00 PM 29.6842 -98.5469 278° West 204 235 3,000  Level Houston Center
Wed 09:14:33 PM 29.6889 -98.5833 279° West 207 238 3,000  Level Houston Center
Wed 09:15:02 PM 29.6858 -98.6047 261° West 206 237 3,000 98 Level Houston Center
Wed 09:15:34 PM 29.6619 -98.6322 225° Southwest 193 222 3,100  Climbing Houston Center
Wed 09:16:03 PM 29.6439 -98.6192 148° Southeast 161 185 3,000 -100 Descending Houston Center
Wed 09:16:34 PM 29.6294 -98.5978 128° Southeast 158 182 3,000  Level Houston Center
Wed 09:17:05 PM 29.6167 -98.5792 128° Southeast 155 178 3,000 -295 Level Houston Center
Wed 09:17:35 PM 29.6036 -98.5672 141° Southeast 122 140 2,700 -581 Descending Houston Center
Wed 09:18:07 PM 29.5944 -98.5522 125° Southeast 123 142 2,400 -689 Descending Houston Center
Wed 09:18:36 PM 29.5819 -98.5383 136° Southeast 113 130 2,000 -689 Descending Houston Center
Wed 09:19:08 PM 29.5711 -98.5211 126° Southeast 119 137 1,700 -590 Descending Houston Center
Wed 09:19:37 PM 29.5606 -98.5097 137° Southeast 122 140 1,400 -581 Descending Houston Center
Wed 09:20:10 PM 29.5492 -98.4922 127° Southeast 121 139 1,100 -545 Descending Houston Center
Wed 09:22:00 PM 29.5340 -98.4691 189° South  Level Estimated
Wed 09:29:00 PM 29.5333 -98.4667 North  Level FlightAware Approximate

Login

Don't have an account? Register now (free) for customized features, flight alerts, and more!